createdAt,value
2022-09-06T00:04:15.076Z,52.04
2022-09-06T00:09:19.000Z,52.07
2022-09-06T00:14:22.759Z,52.08
2022-09-06T00:19:27.554Z,52.19
2022-09-06T00:24:31.425Z,52.14
2022-09-06T00:29:35.758Z,52.20
2022-09-06T00:34:39.596Z,52.19
2022-09-06T00:39:43.586Z,52.35
2022-09-06T00:44:48.527Z,52.20
2022-09-06T00:49:53.839Z,52.17
2022-09-06T00:54:57.640Z,51.96
2022-09-06T01:00:02.564Z,52.07
2022-09-06T01:05:07.043Z,52.26
2022-09-06T01:10:20.673Z,52.20
2022-09-06T01:15:30.797Z,52.13
2022-09-06T01:20:41.538Z,52.21
2022-09-06T01:25:53.268Z,52.37
2022-09-06T01:31:01.255Z,52.14
2022-09-06T01:36:07.849Z,52.21
2022-09-06T01:41:11.762Z,51.98
2022-09-06T01:46:18.291Z,52.07
2022-09-06T01:51:27.859Z,52.13
2022-09-06T01:56:35.214Z,52.15
2022-09-06T02:01:44.306Z,52.12
2022-09-06T02:06:51.218Z,52.02
2022-09-06T02:11:56.526Z,52.01
2022-09-06T02:17:01.350Z,51.97
2022-09-06T02:22:06.944Z,52.15
2022-09-06T02:27:11.663Z,52.23
2022-09-06T02:32:17.742Z,52.27
2022-09-06T02:37:23.203Z,52.23
2022-09-06T02:42:27.128Z,52.11
2022-09-06T02:47:30.849Z,52.10
2022-09-06T02:52:34.671Z,52.32
2022-09-06T02:57:38.431Z,52.09
2022-09-06T03:02:42.064Z,52.39
2022-09-06T03:07:45.838Z,52.06
2022-09-06T03:12:49.404Z,52.27
2022-09-06T03:17:57.372Z,52.36
2022-09-06T03:23:01.300Z,52.31
2022-09-06T03:28:05.315Z,52.29
2022-09-06T03:33:09.041Z,52.38
2022-09-06T03:38:12.661Z,52.23
2022-09-06T03:43:17.404Z,52.05
2022-09-06T03:48:21.858Z,52.18
2022-09-06T03:53:26.574Z,52.35
2022-09-06T03:58:30.983Z,52.40
2022-09-06T04:03:34.841Z,52.36
2022-09-06T04:08:39.071Z,52.34
2022-09-06T04:13:42.752Z,52.10
2022-09-06T04:18:46.792Z,52.30
2022-09-06T04:23:50.693Z,52.27
2022-09-06T04:28:54.251Z,52.21
2022-09-06T04:33:57.963Z,52.37
2022-09-06T04:39:01.692Z,52.18
2022-09-06T04:44:05.301Z,52.32
2022-09-06T04:49:09.049Z,52.09
2022-09-06T04:54:15.933Z,52.24
2022-09-06T04:59:19.552Z,52.05
2022-09-06T05:04:23.374Z,52.11
2022-09-06T05:09:27.083Z,51.90
2022-09-06T05:14:30.808Z,52.00
2022-09-06T05:19:34.529Z,51.64
2022-09-06T05:24:38.332Z,51.68
2022-09-06T05:29:41.975Z,51.68
2022-09-06T05:34:45.581Z,51.43
2022-09-06T05:39:49.366Z,51.41
2022-09-06T05:44:53.331Z,51.59
2022-09-06T05:49:57.143Z,51.54
2022-09-06T05:55:00.871Z,51.46
2022-09-06T06:00:05.864Z,51.49
2022-09-06T06:05:09.821Z,51.41
2022-09-06T06:10:13.361Z,51.67
2022-09-06T06:15:16.982Z,51.56
2022-09-06T06:20:20.591Z,51.62
2022-09-06T06:25:25.895Z,51.61
2022-09-06T06:30:29.684Z,51.57
2022-09-06T06:35:37.095Z,51.37
2022-09-06T06:40:46.563Z,51.59
2022-09-06T06:45:50.508Z,51.63
2022-09-06T06:50:54.223Z,51.54
2022-09-06T06:55:58.001Z,51.52
2022-09-06T07:01:02.003Z,51.50
2022-09-06T07:11:14.191Z,51.52
2022-09-06T07:16:19.289Z,51.48
2022-09-06T07:21:41.732Z,51.62
2022-09-06T07:37:17.847Z,51.78
2022-09-06T07:42:21.484Z,51.73
2022-09-06T07:58:12.356Z,51.56
2022-09-06T08:03:16.075Z,51.52
2022-09-06T08:13:43.586Z,51.43
2022-09-06T08:18:51.693Z,51.52
2022-09-06T08:23:56.034Z,51.31
2022-09-06T08:29:00.271Z,51.08
2022-09-06T08:34:04.301Z,51.24
2022-09-06T08:39:09.602Z,51.01
2022-09-06T08:49:40.801Z,50.98
2022-09-06T08:54:48.921Z,50.97
2022-09-06T08:59:55.052Z,50.97
2022-09-06T09:05:00.932Z,50.70
2022-09-06T09:10:08.533Z,50.80
2022-09-06T09:15:13.762Z,50.81
2022-09-06T09:20:17.801Z,50.52
2022-09-06T09:25:22.893Z,50.60
2022-09-06T09:35:50.942Z,50.20
2022-09-06T09:40:57.100Z,50.26
2022-09-06T09:46:12.786Z,50.00
2022-09-06T09:51:26.114Z,49.90
2022-09-06T09:56:34.330Z,50.00
2022-09-06T10:01:39.191Z,49.73
2022-09-06T10:12:07.574Z,49.69
2022-09-06T10:17:18.414Z,49.69
2022-09-06T10:22:28.686Z,49.67
2022-09-06T10:27:33.352Z,49.67
2022-09-06T10:32:41.033Z,49.74
2022-09-06T10:37:58.781Z,49.69
2022-09-06T10:43:03.721Z,49.53
2022-09-06T10:48:14.423Z,49.62
2022-09-06T10:53:33.190Z,49.51
2022-09-06T11:04:12.474Z,49.48
2022-09-06T11:09:21.726Z,49.37
2022-09-06T11:14:26.162Z,49.46
2022-09-06T11:19:31.831Z,49.33
2022-09-06T11:24:45.772Z,49.50
2022-09-06T11:29:56.164Z,49.33
2022-09-06T11:35:01.449Z,49.49
2022-09-06T11:45:41.001Z,49.33
2022-09-06T11:51:02.193Z,49.30
2022-09-06T11:56:13.143Z,49.40
2022-09-06T12:01:40.488Z,49.61
2022-09-06T12:07:04.091Z,49.43
2022-09-06T12:12:08.451Z,49.56
2022-09-06T12:17:21.501Z,49.53
2022-09-06T12:22:43.001Z,49.50
2022-09-06T12:27:54.093Z,49.56
2022-09-06T12:32:58.711Z,49.72
2022-09-06T12:38:03.211Z,49.71
2022-09-06T12:43:10.380Z,49.56
2022-09-06T12:48:25.771Z,49.56
2022-09-06T12:53:31.231Z,49.38
2022-09-06T12:58:35.951Z,49.59
2022-09-06T13:03:41.191Z,49.62
2022-09-06T13:08:47.401Z,49.53
2022-09-06T13:13:52.039Z,49.52
2022-09-06T13:18:55.665Z,49.71
2022-09-06T13:24:03.623Z,49.65
2022-09-06T13:29:11.201Z,49.68
2022-09-06T13:34:21.032Z,49.55
2022-09-06T13:39:32.023Z,49.63
2022-09-06T13:44:36.384Z,49.87
2022-09-06T13:49:40.202Z,49.70
2022-09-06T13:54:43.921Z,49.74
2022-09-06T13:59:47.641Z,49.66
2022-09-06T14:04:51.395Z,49.74
2022-09-06T14:09:55.831Z,49.61
2022-09-06T14:14:59.681Z,49.69
2022-09-06T14:20:04.105Z,49.76
2022-09-06T14:25:09.046Z,49.71
2022-09-06T14:30:13.476Z,49.66
2022-09-06T14:35:17.371Z,49.53
2022-09-06T14:40:20.881Z,49.54
2022-09-06T14:45:25.211Z,49.58
2022-09-06T14:50:28.941Z,49.53
2022-09-06T14:55:32.663Z,49.57
2022-09-06T15:00:36.412Z,49.55
2022-09-06T15:05:40.411Z,49.59
2022-09-06T15:10:52.831Z,49.53
2022-09-06T15:15:56.687Z,49.55
2022-09-06T15:21:08.361Z,49.45
2022-09-06T15:26:13.291Z,49.50
2022-09-06T15:31:17.083Z,49.53
2022-09-06T15:36:21.489Z,49.59
2022-09-06T15:41:26.820Z,49.55
2022-09-06T15:46:42.352Z,49.57
2022-09-06T15:51:46.452Z,49.48
2022-09-06T15:56:50.272Z,49.44
2022-09-06T16:01:54.029Z,49.54
2022-09-06T16:06:57.631Z,49.63
2022-09-06T16:12:01.432Z,49.71
2022-09-06T16:17:05.208Z,49.78
2022-09-06T16:22:08.873Z,49.76
2022-09-06T16:27:12.494Z,49.73
2022-09-06T16:32:17.071Z,50.02
2022-09-06T16:37:21.161Z,50.04
2022-09-06T16:42:24.893Z,50.12
2022-09-06T16:47:28.701Z,49.93
2022-09-06T16:52:32.523Z,50.12
2022-09-06T16:57:38.912Z,50.17
2022-09-06T17:02:47.025Z,50.19
2022-09-06T17:07:51.891Z,50.32
2022-09-06T17:12:55.600Z,50.21
2022-09-06T17:17:59.211Z,50.19
2022-09-06T17:23:02.883Z,50.33
2022-09-06T17:28:06.664Z,50.60
2022-09-06T17:33:10.472Z,50.33
2022-09-06T17:38:15.450Z,50.44
2022-09-06T17:43:19.143Z,50.53
2022-09-06T17:48:24.555Z,50.65
2022-09-06T17:53:28.473Z,50.68
2022-09-06T17:58:32.244Z,50.58
2022-09-06T18:03:35.980Z,50.52
2022-09-06T18:08:41.303Z,50.75
2022-09-06T18:13:45.364Z,50.51
2022-09-06T18:18:52.095Z,50.72
2022-09-06T18:23:56.478Z,50.72
2022-09-06T18:29:00.190Z,50.75
2022-09-06T18:34:04.231Z,50.55
2022-09-06T18:39:07.951Z,50.63
2022-09-06T18:44:11.872Z,50.74
2022-09-06T18:49:15.691Z,50.65
2022-09-06T18:54:19.821Z,50.55
2022-09-06T18:59:23.551Z,50.81
2022-09-06T19:04:27.481Z,50.76
2022-09-06T19:09:31.191Z,50.87
2022-09-06T19:14:35.141Z,50.74
2022-09-06T19:19:38.942Z,50.75
2022-09-06T19:24:44.096Z,50.77
2022-09-06T19:29:47.923Z,50.69
2022-09-06T19:34:51.657Z,50.73
2022-09-06T19:39:55.840Z,50.64
2022-09-06T19:44:59.686Z,50.64
2022-09-06T19:50:03.803Z,50.54
2022-09-06T19:55:08.615Z,50.74
2022-09-06T20:00:14.413Z,50.80
2022-09-06T20:05:18.377Z,50.86
2022-09-06T20:10:22.189Z,50.85
2022-09-06T20:15:26.722Z,50.62
2022-09-06T20:20:30.333Z,50.58
2022-09-06T20:25:33.851Z,50.71
2022-09-06T20:30:42.185Z,50.73
2022-09-06T20:35:53.575Z,50.66
2022-09-06T20:41:01.343Z,50.56
2022-09-06T20:46:05.732Z,50.66
2022-09-06T20:51:10.092Z,50.65
2022-09-06T20:56:14.713Z,50.59
2022-09-06T21:01:22.092Z,50.42
2022-09-06T21:06:26.557Z,50.62
2022-09-06T21:11:30.274Z,50.70
2022-09-06T21:16:34.163Z,50.56
2022-09-06T21:21:38.422Z,50.47
2022-09-06T21:26:43.403Z,50.48
2022-09-06T21:31:47.171Z,50.52
2022-09-06T21:36:51.030Z,50.43
2022-09-06T21:41:54.847Z,50.53
2022-09-06T21:46:58.811Z,50.52
2022-09-06T21:52:02.792Z,50.41
2022-09-06T21:57:06.496Z,50.38
2022-09-06T22:02:10.285Z,50.46
2022-09-06T22:07:14.054Z,50.46
2022-09-06T22:12:17.673Z,50.58
2022-09-06T22:17:21.403Z,50.34
2022-09-06T22:22:26.773Z,50.41
2022-09-06T22:27:30.572Z,50.28
2022-09-06T22:32:34.506Z,50.18
2022-09-06T22:37:38.326Z,50.41
2022-09-06T22:42:42.146Z,50.22
2022-09-06T22:47:46.372Z,50.53
2022-09-06T22:52:49.873Z,50.36
2022-09-06T22:57:53.814Z,50.04
2022-09-06T23:02:57.432Z,50.36
2022-09-06T23:08:02.341Z,50.23
2022-09-06T23:13:07.595Z,50.31
2022-09-06T23:18:11.380Z,50.15
2022-09-06T23:23:15.082Z,50.01
2022-09-06T23:28:18.690Z,50.03
2022-09-06T23:33:22.529Z,50.23
2022-09-06T23:38:26.178Z,50.35
2022-09-06T23:43:30.150Z,50.26
2022-09-06T23:48:33.959Z,50.04
2022-09-06T23:53:37.490Z,50.13
2022-09-06T23:58:41.539Z,50.02
